createdAt,value
2019-02-27T00:00:31.313Z,77.80
2019-02-27T00:03:01.298Z,77.80
2019-02-27T00:05:30.914Z,78.00
2019-02-27T00:08:00.333Z,78.30
2019-02-27T00:10:29.729Z,78.50
2019-02-27T00:12:59.283Z,78.60
2019-02-27T00:15:28.749Z,78.60
2019-02-27T00:17:58.227Z,78.60
2019-02-27T00:20:27.637Z,78.70
2019-02-27T00:22:56.990Z,78.70
2019-02-27T00:25:26.628Z,78.50
2019-02-27T00:27:56.048Z,78.60
2019-02-27T00:30:25.494Z,78.70
2019-02-27T00:32:57.436Z,78.80
2019-02-27T00:35:26.006Z,78.70
2019-02-27T00:37:55.461Z,79.10
2019-02-27T00:40:24.899Z,79.10
2019-02-27T00:42:54.967Z,79.30
2019-02-27T00:45:24.763Z,79.40
2019-02-27T00:47:54.417Z,79.50
2019-02-27T00:50:27.159Z,79.60
2019-02-27T00:52:57.032Z,79.70
2019-02-27T00:55:27.376Z,79.60
2019-02-27T00:57:57.371Z,79.80
2019-02-27T01:00:27.090Z,79.90
2019-02-27T01:03:02.796Z,79.80
2019-02-27T01:05:40.873Z,79.80
2019-02-27T01:08:10.551Z,79.80
2019-02-27T01:10:40.075Z,79.80
2019-02-27T01:13:09.843Z,79.80
2019-02-27T01:15:41.827Z,79.60
2019-02-27T01:18:10.357Z,79.30
2019-02-27T01:20:39.772Z,79.10
2019-02-27T01:23:11.588Z,78.60
2019-02-27T01:25:40.617Z,78.40
2019-02-27T01:28:11.068Z,78.50
2019-02-27T01:30:42.845Z,78.60
2019-02-27T01:33:12.561Z,78.60
2019-02-27T01:35:42.384Z,78.70
2019-02-27T01:38:11.942Z,78.80
2019-02-27T01:40:41.318Z,79.30
2019-02-27T01:43:10.912Z,79.40
2019-02-27T01:45:40.339Z,79.50
2019-02-27T01:48:09.993Z,79.70
2019-02-27T01:50:39.510Z,80.00
2019-02-27T01:53:09.990Z,80.00
2019-02-27T01:55:39.379Z,79.80
2019-02-27T01:58:09.509Z,79.80
2019-02-27T02:00:40.330Z,79.80
2019-02-27T02:03:11.164Z,79.60
2019-02-27T02:05:41.065Z,79.40
2019-02-27T02:08:13.469Z,79.30
2019-02-27T02:10:41.834Z,79.40
2019-02-27T02:13:19.366Z,79.50
2019-02-27T02:16:05.545Z,79.30
2019-02-27T02:19:01.602Z,79.20
2019-02-27T02:21:58.332Z,78.80
2019-02-27T02:25:05.059Z,78.60
2019-02-27T02:28:14.706Z,78.60
2019-02-27T02:30:53.358Z,78.50
2019-02-27T02:34:05.489Z,78.50
2019-02-27T02:37:02.501Z,79.00
2019-02-27T02:39:54.523Z,79.20
2019-02-27T02:43:05.997Z,79.70
2019-02-27T02:46:08.636Z,80.00
2019-02-27T02:48:42.876Z,80.50
2019-02-27T02:51:51.602Z,80.90
2019-02-27T02:55:15.209Z,81.30
2019-02-27T02:58:14.283Z,81.40
2019-02-27T03:01:03.172Z,81.20
2019-02-27T03:03:42.651Z,81.90
2019-02-27T03:06:35.070Z,82.60
2019-02-27T03:09:21.794Z,82.60
2019-02-27T03:12:22.600Z,82.30
2019-02-27T03:15:18.753Z,82.30
2019-02-27T03:18:10.455Z,82.30
2019-02-27T03:21:28.989Z,82.30
2019-02-27T03:24:31.432Z,82.50
2019-02-27T03:27:30.541Z,82.10
2019-02-27T03:30:10.577Z,82.30
2019-02-27T03:33:08.342Z,82.60
2019-02-27T03:36:20.945Z,82.80
2019-02-27T03:39:18.781Z,83.00
2019-02-27T03:42:10.361Z,83.10
2019-02-27T03:45:13.990Z,84.10
2019-02-27T03:48:08.179Z,83.30
2019-02-27T03:50:49.907Z,83.40
2019-02-27T03:53:38.207Z,83.30
2019-02-27T03:56:32.593Z,83.10
2019-02-27T03:59:27.181Z,83.20
2019-02-27T04:02:10.080Z,83.10
2019-02-27T04:05:05.165Z,83.10
2019-02-27T04:07:36.997Z,83.10
2019-02-27T04:10:06.909Z,83.10
2019-02-27T04:12:36.421Z,83.20
2019-02-27T04:15:09.036Z,83.30
2019-02-27T04:17:36.784Z,83.40
2019-02-27T04:20:14.574Z,83.20
2019-02-27T04:22:39.681Z,83.30
2019-02-27T04:25:16.164Z,83.30
2019-02-27T04:27:45.586Z,83.10
2019-02-27T04:30:16.624Z,83.10
2019-02-27T04:32:48.747Z,83.20
2019-02-27T04:35:18.388Z,83.40
2019-02-27T04:37:48.760Z,83.60
2019-02-27T04:40:21.445Z,83.80
2019-02-27T04:42:50.828Z,83.90
2019-02-27T04:45:20.215Z,83.90
2019-02-27T04:47:49.621Z,83.90
2019-02-27T04:50:20.832Z,84.00
2019-02-27T04:52:57.625Z,84.20
2019-02-27T04:55:24.759Z,84.30
2019-02-27T04:57:55.885Z,84.20
2019-02-27T05:00:26.369Z,84.30
2019-02-27T05:02:59.010Z,84.40
2019-02-27T05:05:28.474Z,84.30
2019-02-27T05:07:57.829Z,84.40
2019-02-27T05:10:27.321Z,84.50
2019-02-27T05:12:56.700Z,84.40
2019-02-27T05:15:26.143Z,84.30
2019-02-27T05:18:02.552Z,84.20
2019-02-27T05:20:31.941Z,84.10
2019-02-27T05:23:01.723Z,84.30
2019-02-27T05:25:31.802Z,84.70
2019-02-27T05:28:04.639Z,85.00
2019-02-27T05:30:34.547Z,85.10
2019-02-27T05:33:06.252Z,85.80
2019-02-27T05:35:49.316Z,85.10
2019-02-27T05:38:19.168Z,84.90
2019-02-27T05:40:48.718Z,84.60
2019-02-27T05:43:18.370Z,84.60
2019-02-27T05:45:47.905Z,84.50
2019-02-27T05:48:19.884Z,84.60
2019-02-27T05:50:49.166Z,84.70
2019-02-27T05:53:22.995Z,84.60
2019-02-27T05:55:56.127Z,85.00
2019-02-27T05:58:31.658Z,85.70
2019-02-27T06:01:02.042Z,85.40
2019-02-27T06:03:34.723Z,85.40
2019-02-27T06:06:11.820Z,85.30
2019-02-27T06:08:58.320Z,85.30
2019-02-27T06:11:29.566Z,85.70
2019-02-27T06:16:56.124Z,85.10
2019-02-27T06:19:33.317Z,85.30
2019-02-27T06:22:01.080Z,85.00
2019-02-27T06:24:30.877Z,84.80
2019-02-27T06:27:06.081Z,85.00
2019-02-27T06:29:33.056Z,85.10
2019-02-27T06:32:03.972Z,85.00
2019-02-27T06:34:59.075Z,85.00
2019-02-27T06:37:26.293Z,84.90
2019-02-27T06:39:59.117Z,84.80
2019-02-27T06:42:29.935Z,85.00
2019-02-27T06:45:02.615Z,85.30
2019-02-27T06:47:32.995Z,85.30
2019-02-27T06:50:05.667Z,85.10
2019-02-27T06:52:37.011Z,84.90
2019-02-27T06:55:13.068Z,84.70
2019-02-27T06:57:42.585Z,84.30
2019-02-27T07:01:16.828Z,83.80
2019-02-27T07:03:46.990Z,83.10
2019-02-27T07:06:21.304Z,82.20
2019-02-27T07:08:49.035Z,81.60
2019-02-27T07:11:19.106Z,81.00
2019-02-27T07:13:48.843Z,80.60
2019-02-27T07:16:20.520Z,80.30
2019-02-27T07:18:50.172Z,80.00
2019-02-27T07:21:19.846Z,78.70
2019-02-27T07:23:49.695Z,78.10
2019-02-27T07:26:19.412Z,77.30
2019-02-27T07:28:49.498Z,77.30
2019-02-27T07:31:23.409Z,74.90
2019-02-27T07:33:53.069Z,74.30
2019-02-27T07:36:22.788Z,73.70
2019-02-27T07:38:54.314Z,72.80
2019-02-27T07:41:24.221Z,72.60
2019-02-27T07:43:53.700Z,72.10
2019-02-27T07:46:23.275Z,72.30
2019-02-27T07:48:56.310Z,72.30
2019-02-27T07:51:24.260Z,71.40
2019-02-27T07:53:54.537Z,70.20
2019-02-27T07:56:24.299Z,69.40
2019-02-27T07:58:54.248Z,68.60
2019-02-27T08:01:25.513Z,67.80
2019-02-27T08:03:57.155Z,67.80
2019-02-27T08:06:26.942Z,67.80
2019-02-27T08:08:58.030Z,67.70
2019-02-27T08:11:28.420Z,67.40
2019-02-27T08:14:00.726Z,66.80
2019-02-27T08:16:29.901Z,66.70
2019-02-27T08:19:02.694Z,65.80
2019-02-27T08:21:34.239Z,65.30
2019-02-27T08:24:07.684Z,63.70
2019-02-27T08:26:40.290Z,63.30
2019-02-27T08:29:12.889Z,62.10
2019-02-27T08:31:42.538Z,61.40
2019-02-27T08:34:14.438Z,60.20
2019-02-27T08:36:44.470Z,59.30
2019-02-27T08:39:14.858Z,58.10
2019-02-27T08:41:44.525Z,57.50
2019-02-27T08:44:22.415Z,57.00
2019-02-27T08:46:51.785Z,56.30
2019-02-27T08:49:24.034Z,55.50
2019-02-27T08:51:52.977Z,54.60
2019-02-27T08:54:22.786Z,53.90
2019-02-27T08:56:52.476Z,53.40
2019-02-27T08:59:23.869Z,53.00
2019-02-27T09:01:56.282Z,52.50
2019-02-27T09:04:29.388Z,52.40
2019-02-27T09:07:02.802Z,51.60
2019-02-27T09:09:32.559Z,50.70
2019-02-27T09:12:03.151Z,50.90
2019-02-27T09:14:38.304Z,50.70
2019-02-27T09:17:08.630Z,49.60
2019-02-27T09:19:46.615Z,49.20
2019-02-27T09:22:19.061Z,49.20
2019-02-27T09:24:48.778Z,48.60
2019-02-27T09:27:20.135Z,48.10
2019-02-27T09:30:02.640Z,47.40
2019-02-27T09:32:30.114Z,47.10
2019-02-27T09:35:00.266Z,47.00
2019-02-27T09:37:30.844Z,46.60
2019-02-27T09:40:04.814Z,46.40
2019-02-27T09:42:36.714Z,46.70
2019-02-27T09:45:21.814Z,46.10
2019-02-27T09:47:51.651Z,45.50
2019-02-27T09:50:47.593Z,45.20
2019-02-27T09:53:21.354Z,43.50
2019-02-27T09:55:54.588Z,43.80
2019-02-27T09:58:24.268Z,44.50
2019-02-27T10:01:03.122Z,43.30
2019-02-27T10:03:32.948Z,42.70
2019-02-27T10:06:04.303Z,42.60
2019-02-27T10:08:34.570Z,42.50
2019-02-27T10:11:04.191Z,42.00
2019-02-27T10:13:35.466Z,41.80
2019-02-27T10:16:05.800Z,41.20
2019-02-27T10:18:35.589Z,40.30
2019-02-27T10:21:09.443Z,40.50
2019-02-27T10:23:46.301Z,40.50
2019-02-27T10:26:16.667Z,40.60
2019-02-27T10:28:50.949Z,41.10
2019-02-27T10:31:22.759Z,41.90
2019-02-27T10:33:56.369Z,42.10
2019-02-27T10:36:26.565Z,42.60
2019-02-27T10:38:56.167Z,42.80
2019-02-27T10:41:27.542Z,43.30
2019-02-27T10:44:00.335Z,45.20
2019-02-27T10:46:30.007Z,44.20
2019-02-27T10:49:03.511Z,44.60
2019-02-27T10:51:33.246Z,43.60
2019-02-27T10:54:05.402Z,44.20
2019-02-27T10:56:38.576Z,44.20
2019-02-27T10:59:08.645Z,43.80
2019-02-27T11:01:38.670Z,43.80
2019-02-27T11:04:08.806Z,44.90
2019-02-27T11:09:46.542Z,44.70
2019-02-27T11:12:20.301Z,44.20
2019-02-27T11:14:58.624Z,43.70
2019-02-27T11:17:34.376Z,43.60
2019-02-27T11:20:12.347Z,43.50
2019-02-27T11:22:42.631Z,43.50
2019-02-27T11:29:14.504Z,43.90
2019-02-27T11:30:48.227Z,43.90
2019-02-27T11:33:25.845Z,44.80
2019-02-27T11:35:56.024Z,45.10
2019-02-27T11:38:29.073Z,45.10
2019-02-27T11:41:00.723Z,44.60
2019-02-27T11:43:30.493Z,44.90
2019-02-27T11:46:02.275Z,44.70
2019-02-27T11:48:36.553Z,44.60
2019-02-27T11:51:06.482Z,45.10
2019-02-27T11:53:36.578Z,45.40
2019-02-27T11:56:09.568Z,45.60
2019-02-27T11:58:39.419Z,45.70
2019-02-27T12:01:12.243Z,45.60
2019-02-27T12:04:03.038Z,45.20
2019-02-27T12:06:32.939Z,45.40
2019-02-27T12:09:04.586Z,45.70
2019-02-27T12:11:34.401Z,46.70
2019-02-27T12:14:06.567Z,46.70
2019-02-27T12:16:36.898Z,46.90
2019-02-27T12:19:08.706Z,47.30
2019-02-27T12:21:41.798Z,46.90
2019-02-27T12:24:11.490Z,47.90
2019-02-27T12:26:41.529Z,48.20
2019-02-27T12:29:11.606Z,47.90
2019-02-27T12:31:48.067Z,48.70
2019-02-27T12:34:14.453Z,48.70
2019-02-27T12:36:45.532Z,48.20
2019-02-27T12:39:16.066Z,48.10
2019-02-27T12:41:45.757Z,48.70
2019-02-27T12:44:15.283Z,48.70
2019-02-27T12:46:46.615Z,48.70
2019-02-27T12:49:16.917Z,48.20
2019-02-27T12:51:48.975Z,49.20
2019-02-27T12:54:19.415Z,48.80
2019-02-27T12:56:49.309Z,49.70
2019-02-27T12:59:23.865Z,49.30
2019-02-27T13:01:53.518Z,49.10
2019-02-27T13:04:23.276Z,48.50
2019-02-27T13:06:52.830Z,48.10
2019-02-27T13:09:24.583Z,47.70
2019-02-27T13:11:54.004Z,48.20
2019-02-27T13:14:23.510Z,48.90
2019-02-27T13:16:52.914Z,48.90
2019-02-27T13:19:22.471Z,48.60
2019-02-27T13:21:52.314Z,48.20
2019-02-27T13:24:23.270Z,47.70
2019-02-27T13:26:53.116Z,48.20
2019-02-27T13:29:22.815Z,47.40
2019-02-27T13:31:52.470Z,48.00
2019-02-27T13:34:22.243Z,47.70
2019-02-27T13:36:51.974Z,47.80
2019-02-27T13:39:25.184Z,47.10
2019-02-27T13:41:53.160Z,47.80
2019-02-27T13:44:23.106Z,47.80
2019-02-27T13:46:54.502Z,47.70
2019-02-27T13:49:25.911Z,47.80
2019-02-27T13:51:55.846Z,47.40
2019-02-27T13:54:25.677Z,48.20
2019-02-27T13:56:56.312Z,48.30
2019-02-27T13:59:25.879Z,47.90
2019-02-27T14:01:55.786Z,48.30
2019-02-27T14:04:25.464Z,49.00
2019-02-27T14:06:55.851Z,48.50
2019-02-27T14:09:25.392Z,48.30
2019-02-27T14:11:58.735Z,48.00
2019-02-27T14:14:28.911Z,48.90
2019-02-27T14:16:58.919Z,48.00
2019-02-27T14:19:28.916Z,48.10
2019-02-27T14:22:08.257Z,47.90
2019-02-27T14:24:38.339Z,48.20
2019-02-27T14:27:08.843Z,47.70
2019-02-27T14:29:41.301Z,48.00
2019-02-27T14:32:11.152Z,48.80
2019-02-27T14:34:40.649Z,48.80
2019-02-27T14:37:10.336Z,47.80
2019-02-27T14:39:39.948Z,47.80
2019-02-27T14:42:10.326Z,47.60
2019-02-27T14:44:40.040Z,47.40
2019-02-27T14:47:16.430Z,47.10
2019-02-27T14:49:47.108Z,46.70
2019-02-27T14:52:16.874Z,47.00
2019-02-27T14:54:46.558Z,47.00
2019-02-27T14:57:16.749Z,47.30
2019-02-27T14:59:46.440Z,46.70
2019-02-27T15:02:16.508Z,46.70
2019-02-27T15:04:46.543Z,46.40
2019-02-27T15:07:16.117Z,46.20
2019-02-27T15:09:50.663Z,46.10
2019-02-27T15:12:20.542Z,46.30
2019-02-27T15:14:50.035Z,46.60
2019-02-27T15:17:20.435Z,46.60
2019-02-27T15:19:52.107Z,46.30
2019-02-27T15:22:26.047Z,46.00
2019-02-27T15:24:55.593Z,46.90
2019-02-27T15:27:25.691Z,46.00
2019-02-27T15:29:55.411Z,46.30
2019-02-27T15:32:26.828Z,45.90
2019-02-27T15:34:57.225Z,46.60
2019-02-27T15:37:26.928Z,46.60
2019-02-27T15:39:56.440Z,46.10
2019-02-27T15:42:26.338Z,45.80
2019-02-27T15:44:56.263Z,46.30
2019-02-27T15:47:27.041Z,46.80
2019-02-27T15:49:57.307Z,45.70
2019-02-27T15:52:28.629Z,45.50
2019-02-27T15:54:59.283Z,45.40
2019-02-27T15:57:29.396Z,45.90
2019-02-27T15:59:59.795Z,46.00
2019-02-27T16:02:29.492Z,45.50
2019-02-27T16:04:59.459Z,45.50
2019-02-27T16:07:39.627Z,46.10
2019-02-27T16:10:22.230Z,46.10
2019-02-27T16:12:52.095Z,46.20
2019-02-27T16:15:26.656Z,46.10
2019-02-27T16:17:56.443Z,46.20
2019-02-27T16:20:27.680Z,46.10
2019-02-27T16:22:58.309Z,45.90
2019-02-27T16:25:31.245Z,45.70
2019-02-27T16:28:18.306Z,45.70
2019-02-27T16:30:48.239Z,45.80
2019-02-27T16:33:23.870Z,45.60
2019-02-27T16:35:55.354Z,45.40
2019-02-27T16:38:28.326Z,45.40
2019-02-27T16:41:06.588Z,45.40
2019-02-27T16:43:37.636Z,45.20
2019-02-27T16:46:09.061Z,45.20
2019-02-27T16:48:52.112Z,45.20
2019-02-27T16:51:23.321Z,45.20
2019-02-27T16:53:53.976Z,45.10
2019-02-27T16:56:25.285Z,45.10
2019-02-27T16:58:56.031Z,46.10
2019-02-27T17:01:26.266Z,45.60
2019-02-27T17:04:00.419Z,45.70
2019-02-27T17:06:28.600Z,45.90
2019-02-27T17:09:01.269Z,46.00
2019-02-27T17:11:32.535Z,46.00
2019-02-27T17:14:24.385Z,46.20
2019-02-27T17:16:53.441Z,46.30
2019-02-27T17:19:24.390Z,46.40
2019-02-27T17:21:58.410Z,46.40
2019-02-27T17:24:25.039Z,46.80
2019-02-27T17:26:54.671Z,46.90
2019-02-27T17:29:26.503Z,47.00
2019-02-27T17:31:56.409Z,47.30
2019-02-27T17:34:25.873Z,47.60
2019-02-27T17:36:55.554Z,48.00
2019-02-27T17:39:27.644Z,48.50
2019-02-27T17:41:56.210Z,49.00
2019-02-27T17:44:25.938Z,49.50
2019-02-27T17:46:55.593Z,50.00
2019-02-27T17:49:25.407Z,50.50
2019-02-27T17:51:57.212Z,50.70
2019-02-27T17:54:31.356Z,51.10
2019-02-27T17:56:59.763Z,51.50
2019-02-27T17:59:29.160Z,51.60
2019-02-27T18:01:59.314Z,52.00
2019-02-27T18:04:29.778Z,52.20
2019-02-27T18:07:00.646Z,52.80
2019-02-27T18:09:30.337Z,53.30
2019-02-27T18:11:59.911Z,53.70
2019-02-27T18:14:29.663Z,54.10
2019-02-27T18:16:59.523Z,54.40
2019-02-27T18:19:29.701Z,54.90
2019-02-27T18:21:59.294Z,55.10
2019-02-27T18:24:34.187Z,55.30
2019-02-27T18:27:02.499Z,55.60
2019-02-27T18:29:31.888Z,55.80
2019-02-27T18:32:06.119Z,56.90
2019-02-27T18:34:32.497Z,56.40
2019-02-27T18:37:02.196Z,56.70
2019-02-27T18:39:36.388Z,57.70
2019-02-27T18:42:05.597Z,57.60
2019-02-27T18:44:35.036Z,57.70
2019-02-27T18:47:04.847Z,58.70
2019-02-27T18:49:55.286Z,59.10
2019-02-27T18:52:28.429Z,59.60
2019-02-27T18:54:58.094Z,59.40
2019-02-27T18:57:30.501Z,59.00
2019-02-27T19:00:02.495Z,59.40
2019-02-27T19:02:32.001Z,59.20
2019-02-27T19:05:01.693Z,59.30
2019-02-27T19:07:31.159Z,59.30
2019-02-27T19:10:09.762Z,59.70
2019-02-27T19:12:39.314Z,60.00
2019-02-27T19:15:19.019Z,60.00
2019-02-27T19:17:50.493Z,60.10
2019-02-27T19:20:28.791Z,60.30
2019-02-27T19:23:00.400Z,60.80
2019-02-27T19:25:34.183Z,61.10
2019-02-27T19:28:01.713Z,61.60
2019-02-27T19:30:31.205Z,62.50
2019-02-27T19:33:02.041Z,62.30
2019-02-27T19:35:32.028Z,63.10
2019-02-27T19:38:01.418Z,63.20
2019-02-27T19:40:31.355Z,63.80
2019-02-27T19:43:05.938Z,64.00
2019-02-27T19:45:42.675Z,64.00
2019-02-27T19:48:12.478Z,64.10
2019-02-27T19:50:49.549Z,64.60
2019-02-27T19:53:23.248Z,65.70
2019-02-27T19:55:53.830Z,66.30
2019-02-27T19:58:23.192Z,65.80
2019-02-27T20:00:54.896Z,66.10
2019-02-27T20:03:34.876Z,66.60
2019-02-27T20:06:07.129Z,66.80
2019-02-27T20:08:44.459Z,67.10
2019-02-27T20:11:11.593Z,67.50
2019-02-27T20:13:44.628Z,68.00
2019-02-27T20:16:13.978Z,68.50
2019-02-27T20:18:44.271Z,68.70
2019-02-27T20:21:14.143Z,68.90
2019-02-27T20:23:43.618Z,69.10
2019-02-27T20:26:14.234Z,69.30
2019-02-27T20:28:44.866Z,69.80
2019-02-27T20:31:24.217Z,70.00
2019-02-27T20:33:56.333Z,70.60
2019-02-27T20:36:37.187Z,70.80
2019-02-27T20:39:09.231Z,70.90
2019-02-27T20:41:49.065Z,70.40
2019-02-27T20:44:19.395Z,70.30
2019-02-27T20:46:49.342Z,70.30
2019-02-27T20:49:21.645Z,70.40
2019-02-27T20:51:51.116Z,70.60
2019-02-27T20:54:20.738Z,70.60
2019-02-27T20:56:55.470Z,70.60
2019-02-27T20:59:29.103Z,70.70
2019-02-27T21:01:58.693Z,70.70
2019-02-27T21:04:35.976Z,70.60
2019-02-27T21:07:05.438Z,70.90
2019-02-27T21:09:35.121Z,71.00
2019-02-27T21:12:06.564Z,71.30
2019-02-27T21:14:35.584Z,71.30
2019-02-27T21:17:05.306Z,71.40
2019-02-27T21:19:37.274Z,71.50
2019-02-27T21:22:06.110Z,71.80
2019-02-27T21:24:37.273Z,71.90
2019-02-27T21:27:06.598Z,71.90
2019-02-27T21:29:36.313Z,71.80
2019-02-27T21:32:05.806Z,71.80
2019-02-27T21:34:35.275Z,72.80
2019-02-27T21:37:09.558Z,71.90
2019-02-27T21:39:35.789Z,72.20
2019-02-27T21:42:05.242Z,72.20
2019-02-27T21:44:34.723Z,72.40
2019-02-27T21:47:04.122Z,72.90
2019-02-27T21:49:37.220Z,73.00
2019-02-27T21:52:26.772Z,72.80
2019-02-27T21:55:00.359Z,72.90
2019-02-27T21:57:37.919Z,72.70
2019-02-27T22:00:21.708Z,72.90
2019-02-27T22:02:53.145Z,73.30
2019-02-27T22:05:22.765Z,73.40
2019-02-27T22:07:52.490Z,73.10
2019-02-27T22:10:22.127Z,73.60
2019-02-27T22:12:51.737Z,73.60
2019-02-27T22:15:31.001Z,73.80
2019-02-27T22:18:02.857Z,74.40
2019-02-27T22:20:32.387Z,74.60
2019-02-27T22:23:02.150Z,74.50
2019-02-27T22:25:31.819Z,74.30
2019-02-27T22:28:01.510Z,74.30
2019-02-27T22:30:31.972Z,74.40
2019-02-27T22:33:02.078Z,74.40
2019-02-27T22:35:37.355Z,74.70
2019-02-27T22:38:03.061Z,74.70
2019-02-27T22:40:32.465Z,75.20
2019-02-27T22:43:01.939Z,75.10
2019-02-27T22:45:31.372Z,75.20
2019-02-27T22:48:00.766Z,75.90
2019-02-27T22:50:30.154Z,76.10
2019-02-27T22:52:59.573Z,76.50
2019-02-27T22:55:28.951Z,77.30
2019-02-27T22:57:58.675Z,76.80
2019-02-27T23:01:02.152Z,76.80
2019-02-27T23:03:36.888Z,76.70
2019-02-27T23:06:09.250Z,76.40
2019-02-27T23:08:37.826Z,76.30
2019-02-27T23:11:07.467Z,76.30
2019-02-27T23:13:37.052Z,76.40
2019-02-27T23:16:06.658Z,76.40
2019-02-27T23:18:37.381Z,76.40
2019-02-27T23:21:07.847Z,76.60
2019-02-27T23:23:37.572Z,76.70
2019-02-27T23:26:06.953Z,76.70
2019-02-27T23:28:36.613Z,76.70
2019-02-27T23:31:06.996Z,76.80
2019-02-27T23:33:36.786Z,77.10
2019-02-27T23:36:06.865Z,77.40
2019-02-27T23:38:36.941Z,77.80
2019-02-27T23:41:07.178Z,78.10
2019-02-27T23:43:37.503Z,78.70
2019-02-27T23:46:07.458Z,79.10
2019-02-27T23:48:37.335Z,78.90
2019-02-27T23:51:07.312Z,79.00
2019-02-27T23:53:37.399Z,79.00
2019-02-27T23:56:07.434Z,79.10
2019-02-27T23:58:37.469Z,79.20
